createdAt,value
2018-09-28T00:00:15.214Z,13.07
2018-09-28T00:01:15.084Z,13.03
2018-09-28T00:02:15.102Z,13.14
2018-09-28T00:03:15.422Z,13.07
2018-09-28T00:04:15.123Z,13.00
2018-09-28T00:05:15.139Z,13.00
2018-09-28T00:06:15.159Z,13.08
2018-09-28T00:07:15.161Z,13.01
2018-09-28T00:08:15.179Z,13.08
2018-09-28T00:09:15.190Z,12.97
2018-09-28T00:10:15.237Z,13.07
2018-09-28T00:11:15.255Z,13.00
2018-09-28T00:12:15.257Z,13.01
2018-09-28T00:13:15.260Z,13.01
2018-09-28T00:14:15.258Z,12.96
2018-09-28T00:15:15.268Z,12.96
2018-09-28T00:16:15.281Z,12.92
2018-09-28T00:17:15.336Z,12.96
2018-09-28T00:18:15.511Z,13.01
2018-09-28T00:19:15.349Z,13.07
2018-09-28T00:20:15.338Z,13.05
2018-09-28T00:21:15.350Z,12.89
2018-09-28T00:22:15.438Z,12.85
2018-09-28T00:23:15.440Z,12.89
2018-09-28T00:24:15.475Z,12.93
2018-09-28T00:25:15.573Z,12.85
2018-09-28T00:26:15.881Z,12.82
2018-09-28T00:27:15.441Z,12.75
2018-09-28T00:28:15.441Z,12.74
2018-09-28T00:29:15.547Z,12.74
2018-09-28T00:30:15.548Z,12.64
2018-09-28T00:31:15.483Z,12.67
2018-09-28T00:32:15.492Z,12.70
2018-09-28T00:33:15.502Z,12.64
2018-09-28T00:34:15.524Z,12.64
2018-09-28T00:35:15.531Z,12.72
2018-09-28T00:36:15.545Z,12.70
2018-09-28T00:37:15.555Z,12.77
2018-09-28T00:38:15.578Z,12.79
2018-09-28T00:39:15.581Z,12.79
2018-09-28T00:40:15.601Z,12.77
2018-09-28T00:41:15.619Z,12.79
2018-09-28T00:42:15.940Z,12.77
2018-09-28T00:43:15.637Z,12.79
2018-09-28T00:44:15.650Z,12.82
2018-09-28T00:45:15.661Z,12.87
2018-09-28T00:46:15.676Z,12.83
2018-09-28T00:47:15.693Z,12.86
2018-09-28T00:48:15.700Z,12.85
2018-09-28T00:49:15.717Z,12.85
2018-09-28T00:50:15.751Z,12.82
2018-09-28T00:51:15.774Z,12.77
2018-09-28T00:52:15.755Z,12.85
2018-09-28T00:53:15.773Z,12.71
2018-09-28T00:54:15.777Z,12.78
2018-09-28T00:55:15.806Z,12.72
2018-09-28T00:56:15.808Z,12.70
2018-09-28T00:57:15.887Z,12.75
2018-09-28T00:58:15.829Z,12.72
2018-09-28T00:59:15.847Z,12.72
2018-09-28T01:00:15.867Z,12.75
2018-09-28T01:01:15.887Z,12.74
2018-09-28T01:02:15.886Z,12.75
2018-09-28T01:03:15.928Z,12.70
2018-09-28T01:04:15.915Z,12.64
2018-09-28T01:05:16.506Z,12.67
2018-09-28T01:06:15.956Z,12.60
2018-09-28T01:07:15.947Z,12.67
2018-09-28T01:08:15.963Z,12.67
2018-09-28T01:09:15.978Z,12.57
2018-09-28T01:10:16.004Z,12.60
2018-09-28T01:11:15.996Z,12.68
2018-09-28T01:12:16.010Z,12.67
2018-09-28T01:13:16.023Z,12.72
2018-09-28T01:14:16.037Z,12.70
2018-09-28T01:15:16.052Z,12.70
2018-09-28T01:16:16.085Z,12.70
2018-09-28T01:17:16.077Z,12.83
2018-09-28T01:18:16.089Z,12.79
2018-09-28T01:19:16.101Z,12.82
2018-09-28T01:20:16.115Z,12.82
2018-09-28T01:21:16.138Z,12.87
2018-09-28T01:22:16.160Z,12.90
2018-09-28T01:23:16.153Z,12.78
2018-09-28T01:24:16.169Z,12.75
2018-09-28T01:25:16.181Z,12.79
2018-09-28T01:26:16.193Z,12.85
2018-09-28T01:27:16.238Z,12.85
2018-09-28T01:28:16.218Z,12.86
2018-09-28T01:29:16.233Z,12.86
2018-09-28T01:30:16.244Z,12.78
2018-09-28T01:31:16.270Z,12.86
2018-09-28T01:32:16.270Z,12.83
2018-09-28T01:33:16.282Z,12.78
2018-09-28T01:34:16.336Z,12.75
2018-09-28T01:35:16.489Z,12.82
2018-09-28T01:36:16.778Z,12.85
2018-09-28T01:37:16.336Z,12.79
2018-09-28T01:38:16.355Z,12.75
2018-09-28T01:39:16.362Z,12.75
2018-09-28T01:40:16.373Z,12.70
2018-09-28T01:41:16.390Z,12.71
2018-09-28T01:42:16.398Z,12.67
2018-09-28T01:43:16.413Z,12.67
2018-09-28T01:44:16.436Z,12.67
2018-09-28T01:45:16.463Z,12.65
2018-09-28T01:46:16.637Z,12.68
2018-09-28T01:47:16.465Z,12.65
2018-09-28T01:48:16.478Z,12.65
2018-09-28T01:49:16.501Z,12.67
2018-09-28T01:50:16.531Z,12.70
2018-09-28T01:51:16.516Z,12.74
2018-09-28T01:52:16.529Z,12.85
2018-09-28T01:53:16.541Z,12.78
2018-09-28T01:54:16.554Z,12.79
2018-09-28T01:55:16.567Z,12.82
2018-09-28T01:56:16.603Z,12.82
2018-09-28T01:57:16.622Z,12.86
2018-09-28T01:58:16.606Z,12.89
2018-09-28T01:59:16.617Z,12.86
2018-09-28T02:00:16.668Z,12.89
2018-09-28T02:01:16.653Z,13.01
2018-09-28T02:02:16.674Z,12.93
2018-09-28T02:03:16.670Z,13.00
2018-09-28T02:04:16.682Z,13.04
2018-09-28T02:05:16.725Z,12.93
2018-09-28T02:06:16.826Z,13.04
2018-09-28T02:07:16.721Z,12.89
2018-09-28T02:08:16.735Z,12.96
2018-09-28T02:09:16.779Z,12.97
2018-09-28T02:10:16.762Z,13.04
2018-09-28T02:11:16.769Z,13.05
2018-09-28T02:12:16.782Z,13.04
2018-09-28T02:13:17.000Z,13.08
2018-09-28T02:14:16.811Z,13.07
2018-09-28T02:15:16.824Z,13.04
2018-09-28T02:16:16.837Z,13.10
2018-09-28T02:17:16.864Z,13.19
2018-09-28T02:18:16.924Z,13.15
2018-09-28T02:19:16.954Z,13.19
2018-09-28T02:20:16.890Z,13.26
2018-09-28T02:21:16.903Z,13.26
2018-09-28T02:22:16.926Z,13.25
2018-09-28T02:23:16.926Z,13.30
2018-09-28T02:24:16.944Z,13.32
2018-09-28T02:25:16.956Z,13.36
2018-09-28T02:26:16.971Z,13.33
2018-09-28T02:27:17.005Z,13.36
2018-09-28T02:28:16.993Z,13.33
2018-09-28T02:29:17.008Z,13.44
2018-09-28T02:30:17.019Z,13.38
2018-09-28T02:31:17.031Z,13.39
2018-09-28T02:32:17.044Z,13.38
2018-09-28T02:33:17.060Z,13.41
2018-09-28T02:34:17.070Z,13.32
2018-09-28T02:35:17.122Z,13.36
2018-09-28T02:36:17.126Z,13.38
2018-09-28T02:37:17.115Z,13.41
2018-09-28T02:38:17.123Z,13.33
2018-09-28T02:39:17.138Z,13.33
2018-09-28T02:40:17.257Z,13.39
2018-09-28T02:41:17.231Z,13.36
2018-09-28T02:42:17.182Z,13.28
2018-09-28T02:43:17.195Z,13.33
2018-09-28T02:44:17.551Z,13.32
2018-09-28T02:45:17.215Z,13.29
2018-09-28T02:46:17.226Z,13.29
2018-09-28T02:47:17.243Z,13.29
2018-09-28T02:48:17.258Z,13.28
2018-09-28T02:49:17.273Z,13.28
2018-09-28T02:50:17.279Z,13.29
2018-09-28T02:51:17.292Z,13.26
2018-09-28T02:52:17.360Z,13.39
2018-09-28T02:53:17.320Z,13.45
2018-09-28T02:54:17.358Z,13.45
2018-09-28T02:55:17.369Z,13.44
2018-09-28T02:56:17.362Z,13.42
2018-09-28T02:57:17.420Z,13.42
2018-09-28T02:58:17.407Z,13.36
2018-09-28T02:59:17.399Z,13.41
2018-09-28T03:00:17.423Z,13.52
2018-09-28T03:01:17.423Z,13.51
2018-09-28T03:02:17.468Z,13.46
2018-09-28T03:03:17.465Z,13.51
2018-09-28T03:04:17.482Z,13.60
2018-09-28T03:05:17.489Z,13.64
2018-09-28T03:06:17.556Z,13.60
2018-09-28T03:07:17.535Z,13.62
2018-09-28T03:08:17.516Z,13.63
2018-09-28T03:09:17.528Z,13.64
2018-09-28T03:10:17.543Z,13.60
2018-09-28T03:11:17.622Z,13.63
2018-09-28T03:12:17.614Z,13.55
2018-09-28T03:13:17.582Z,13.60
2018-09-28T03:14:17.596Z,13.64
2018-09-28T03:15:17.610Z,13.52
2018-09-28T03:16:17.627Z,13.59
2018-09-28T03:17:17.643Z,13.60
2018-09-28T03:18:17.654Z,13.62
2018-09-28T03:19:17.660Z,13.59
2018-09-28T03:20:17.673Z,13.62
2018-09-28T03:21:17.687Z,13.67
2018-09-28T03:22:17.705Z,13.62
2018-09-28T03:23:17.713Z,13.59
2018-09-28T03:24:17.728Z,13.62
2018-09-28T03:25:17.754Z,13.62
2018-09-28T03:26:17.840Z,13.55
2018-09-28T03:27:17.863Z,13.59
2018-09-28T03:28:17.847Z,13.62
2018-09-28T03:29:17.794Z,13.59
2018-09-28T03:30:17.808Z,13.62
2018-09-28T03:31:17.818Z,13.70
2018-09-28T03:32:17.832Z,13.63
2018-09-28T03:33:17.846Z,13.69
2018-09-28T03:34:17.866Z,13.59
2018-09-28T03:35:17.869Z,13.59
2018-09-28T03:36:17.907Z,13.63
2018-09-28T03:37:17.899Z,13.59
2018-09-28T03:38:17.914Z,13.59
2018-09-28T03:39:17.925Z,13.57
2018-09-28T03:40:17.939Z,13.63
2018-09-28T03:41:17.953Z,13.70
2018-09-28T03:42:17.963Z,13.71
2018-09-28T03:43:17.975Z,13.63
2018-09-28T03:44:17.997Z,13.71
2018-09-28T03:45:18.009Z,13.70
2018-09-28T03:46:18.025Z,13.71
2018-09-28T03:47:18.032Z,13.67
2018-09-28T03:48:18.044Z,13.79
2018-09-28T03:49:18.368Z,13.73
2018-09-28T03:50:18.072Z,13.78
2018-09-28T03:51:18.083Z,13.75
2018-09-28T03:52:18.093Z,13.75
2018-09-28T03:53:18.110Z,13.78
2018-09-28T03:54:18.127Z,13.73
2018-09-28T03:55:18.147Z,13.78
2018-09-28T03:56:18.147Z,13.82
2018-09-28T03:57:18.164Z,13.79
2018-09-28T03:58:18.180Z,13.85
2018-09-28T03:59:18.189Z,13.82
2018-09-28T04:00:18.203Z,13.91
2018-09-28T04:01:18.218Z,13.91
2018-09-28T04:02:18.243Z,13.95
2018-09-28T04:03:18.270Z,13.91
2018-09-28T04:04:18.265Z,13.92
2018-09-28T04:05:18.271Z,13.91
2018-09-28T04:06:18.280Z,13.95
2018-09-28T04:07:18.293Z,13.92
2018-09-28T04:08:18.311Z,13.91
2018-09-28T04:09:18.324Z,13.95
2018-09-28T04:10:18.355Z,14.03
2018-09-28T04:11:18.379Z,13.85
2018-09-28T04:12:18.367Z,13.89
2018-09-28T04:13:18.438Z,13.88
2018-09-28T04:14:18.519Z,13.96
2018-09-28T04:15:18.402Z,13.85
2018-09-28T04:16:18.449Z,13.89
2018-09-28T04:17:18.433Z,13.96
2018-09-28T04:18:18.441Z,14.00
2018-09-28T04:19:18.504Z,14.02
2018-09-28T04:20:18.471Z,14.07
2018-09-28T04:21:18.486Z,14.02
2018-09-28T04:22:18.497Z,13.92
2018-09-28T04:23:18.511Z,13.97
2018-09-28T04:24:18.534Z,13.96
2018-09-28T04:25:18.536Z,14.09
2018-09-28T04:26:18.551Z,14.00
2018-09-28T04:27:18.701Z,14.06
2018-09-28T04:28:18.706Z,14.07
2018-09-28T04:29:18.630Z,14.10
2018-09-28T04:30:18.612Z,14.12
2018-09-28T04:31:18.618Z,14.07
2018-09-28T04:32:18.638Z,14.07
2018-09-28T04:33:18.657Z,14.04
2018-09-28T04:34:18.663Z,14.07
2018-09-28T04:35:18.741Z,14.14
2018-09-28T04:36:20.052Z,14.06
2018-09-28T04:37:19.603Z,14.10
2018-09-28T04:38:19.477Z,14.15
2018-09-28T04:39:19.190Z,14.14
2018-09-28T04:40:18.953Z,14.17
2018-09-28T04:41:19.034Z,14.21
2018-09-28T04:42:18.963Z,14.12
2018-09-28T04:43:18.776Z,14.10
2018-09-28T04:44:18.809Z,14.07
2018-09-28T04:45:18.908Z,14.15
2018-09-28T04:46:19.204Z,14.15
2018-09-28T04:49:18.888Z,14.25
2018-09-28T04:50:19.600Z,14.25
2018-09-28T04:51:19.569Z,14.21
2018-09-28T04:52:19.092Z,14.15
2018-09-28T04:53:18.915Z,14.12
2018-09-28T04:54:18.926Z,14.15
2018-09-28T04:55:19.386Z,14.20
2018-09-28T04:56:19.602Z,14.27
2018-09-28T04:57:19.036Z,14.29
2018-09-28T04:58:18.982Z,14.24
2018-09-28T04:59:19.032Z,14.27
2018-09-28T05:00:19.891Z,14.28
2018-09-28T05:01:19.044Z,14.27
2018-09-28T05:02:19.034Z,14.21
2018-09-28T05:03:19.052Z,14.29
2018-09-28T05:04:19.060Z,14.29
2018-09-28T05:05:19.106Z,14.22
2018-09-28T05:06:19.087Z,14.22
2018-09-28T05:07:19.113Z,14.14
2018-09-28T05:08:19.115Z,14.25
2018-09-28T05:09:19.126Z,14.24
2018-09-28T05:10:19.157Z,14.21
2018-09-28T05:11:19.160Z,14.28
2018-09-28T05:12:19.183Z,14.27
2018-09-28T05:13:19.237Z,14.24
2018-09-28T05:14:19.199Z,14.25
2018-09-28T05:15:19.218Z,14.21
2018-09-28T05:16:19.590Z,14.22
2018-09-28T05:17:19.236Z,14.25
2018-09-28T05:18:19.248Z,14.24
2018-09-28T05:19:19.855Z,14.22
2018-09-28T05:20:20.491Z,14.25
2018-09-28T05:21:20.946Z,14.27
2018-09-28T05:22:20.065Z,14.22
2018-09-28T05:23:19.313Z,14.22
2018-09-28T05:24:19.331Z,14.25
2018-09-28T05:25:19.426Z,14.21
2018-09-28T05:26:19.364Z,14.15
2018-09-28T05:27:19.371Z,14.27
2018-09-28T05:28:19.393Z,14.29
2018-09-28T05:29:19.399Z,14.24
2018-09-28T05:30:19.443Z,14.25
2018-09-28T05:31:19.481Z,14.21
2018-09-28T05:32:19.607Z,14.32
2018-09-28T05:33:19.690Z,14.25
2018-09-28T05:34:20.181Z,14.27
2018-09-28T05:35:19.470Z,14.28
2018-09-28T05:36:19.496Z,14.21
2018-09-28T05:37:19.634Z,14.24
2018-09-28T05:38:19.510Z,14.21
2018-09-28T05:39:19.865Z,14.25
2018-09-28T05:40:19.536Z,14.24
2018-09-28T05:41:20.612Z,14.25
2018-09-28T05:43:19.587Z,14.21
2018-09-28T05:44:19.590Z,14.33
2018-09-28T05:45:19.644Z,14.21
2018-09-28T05:46:19.666Z,14.27
2018-09-28T05:47:19.628Z,14.22
2018-09-28T05:48:19.644Z,14.22
2018-09-28T05:49:19.657Z,14.22
2018-09-28T05:50:19.693Z,14.21
2018-09-28T05:51:19.752Z,14.27
2018-09-28T05:52:19.730Z,14.22
2018-09-28T05:53:19.736Z,14.24
2018-09-28T05:54:20.473Z,14.22
2018-09-28T05:55:19.740Z,14.20
2018-09-28T05:56:19.793Z,14.24
2018-09-28T05:57:19.763Z,14.20
2018-09-28T05:58:19.784Z,14.21
2018-09-28T05:59:19.794Z,14.35
2018-09-28T06:00:19.808Z,14.22
2018-09-28T06:01:19.820Z,14.25
2018-09-28T06:02:19.898Z,14.21
2018-09-28T06:03:19.856Z,14.12
2018-09-28T06:04:20.075Z,14.15
2018-09-28T06:05:19.908Z,14.18
2018-09-28T06:06:19.886Z,14.10
2018-09-28T06:07:19.974Z,14.17
2018-09-28T06:08:19.914Z,14.12
2018-09-28T06:09:19.946Z,14.06
2018-09-28T06:10:20.093Z,14.06
2018-09-28T06:11:20.007Z,14.03
2018-09-28T06:12:19.987Z,14.03
2018-09-28T06:13:20.291Z,14.07
2018-09-28T06:14:19.993Z,14.07
2018-09-28T06:15:22.375Z,14.09
2018-09-28T06:16:20.053Z,14.17
2018-09-28T06:17:20.034Z,14.18
2018-09-28T06:18:20.115Z,14.14
2018-09-28T06:19:20.062Z,14.22
2018-09-28T06:20:20.085Z,14.12
2018-09-28T06:21:20.092Z,14.07
2018-09-28T06:22:20.159Z,14.14
2018-09-28T06:23:20.110Z,14.06
2018-09-28T06:24:20.231Z,14.10
2018-09-28T06:25:20.143Z,14.17
2018-09-28T06:26:20.171Z,14.15
2018-09-28T06:27:20.169Z,14.12
2018-09-28T06:28:20.185Z,14.21
2018-09-28T06:29:20.194Z,14.14
2018-09-28T06:30:20.211Z,14.12
2018-09-28T06:31:20.217Z,14.09
2018-09-28T06:32:20.233Z,14.03
2018-09-28T06:33:20.249Z,14.07
2018-09-28T06:34:20.352Z,14.02
2018-09-28T06:35:20.273Z,14.04
2018-09-28T06:36:20.392Z,14.04
2018-09-28T06:37:20.300Z,14.04
2018-09-28T06:38:20.320Z,14.04
2018-09-28T06:39:20.324Z,14.04
2018-09-28T06:40:20.341Z,14.04
2018-09-28T06:41:20.353Z,13.96
2018-09-28T06:42:20.439Z,14.04
2018-09-28T06:43:20.377Z,13.97
2018-09-28T06:44:20.416Z,13.97
2018-09-28T06:45:20.406Z,13.97
2018-09-28T06:46:20.419Z,14.07
2018-09-28T06:47:20.456Z,13.92
2018-09-28T06:48:20.495Z,13.95
2018-09-28T06:49:20.457Z,14.03
2018-09-28T06:50:20.472Z,14.03
2018-09-28T06:51:20.495Z,14.03
2018-09-28T06:52:20.534Z,14.06
2018-09-28T06:53:20.521Z,14.07
2018-09-28T06:54:20.713Z,14.07
2018-09-28T06:55:20.542Z,14.07
2018-09-28T06:56:20.566Z,14.14
2018-09-28T06:57:20.567Z,14.20
2018-09-28T06:58:20.670Z,14.18
2018-09-28T06:59:20.597Z,14.21
2018-09-28T07:00:20.679Z,14.25
2018-09-28T07:01:20.617Z,14.18
2018-09-28T07:02:20.633Z,14.28
2018-09-28T07:03:20.646Z,14.25
2018-09-28T07:04:20.659Z,14.32
2018-09-28T07:05:20.673Z,14.36
2018-09-28T07:06:20.802Z,14.36
2018-09-28T07:07:20.697Z,14.33
2018-09-28T07:08:20.714Z,14.28
2018-09-28T07:09:20.776Z,14.39
2018-09-28T07:10:20.784Z,14.33
2018-09-28T07:11:20.752Z,14.39
2018-09-28T07:12:20.789Z,14.33
2018-09-28T07:13:20.778Z,14.37
2018-09-28T07:14:20.792Z,14.36
2018-09-28T07:15:20.817Z,14.33
2018-09-28T07:16:20.881Z,14.46
2018-09-28T07:17:20.833Z,14.55
2018-09-28T07:18:20.911Z,14.55
2018-09-28T07:19:20.861Z,14.58
2018-09-28T07:20:20.874Z,14.51
2018-09-28T07:21:20.887Z,14.58
2018-09-28T07:22:20.904Z,14.57
2018-09-28T07:23:20.913Z,14.65
2018-09-28T07:24:20.989Z,14.62
2018-09-28T07:25:21.532Z,14.70
2018-09-28T07:26:20.965Z,14.72
2018-09-28T07:27:20.988Z,14.69
2018-09-28T07:28:20.983Z,14.83
2018-09-28T07:29:20.995Z,14.72
2018-09-28T07:30:21.103Z,14.84
2018-09-28T07:31:21.021Z,14.81
2018-09-28T07:32:22.060Z,14.95
2018-09-28T07:33:21.051Z,14.86
2018-09-28T07:34:21.075Z,14.94
2018-09-28T07:35:21.088Z,14.92
2018-09-28T07:36:21.191Z,14.84
2018-09-28T07:37:21.107Z,14.95
2018-09-28T07:38:21.118Z,14.89
2018-09-28T07:39:21.131Z,14.86
2018-09-28T07:40:21.475Z,14.88
2018-09-28T07:41:21.158Z,14.89
2018-09-28T07:42:21.237Z,14.95
2018-09-28T07:43:21.260Z,14.96
2018-09-28T07:44:21.211Z,14.91
2018-09-28T07:45:22.513Z,14.96
2018-09-28T07:46:21.252Z,15.02
2018-09-28T07:47:21.255Z,15.06
2018-09-28T07:48:21.266Z,15.11
2018-09-28T07:49:21.269Z,15.10
2018-09-28T07:50:21.283Z,15.14
2018-09-28T07:51:21.299Z,15.13
2018-09-28T07:52:21.313Z,15.25
2018-09-28T07:53:21.334Z,15.23
2018-09-28T07:54:21.345Z,15.20
2018-09-28T07:55:21.370Z,15.17
2018-09-28T07:56:21.368Z,15.16
2018-09-28T07:57:21.380Z,15.21
2018-09-28T07:58:21.393Z,15.19
2018-09-28T07:59:21.490Z,15.17
2018-09-28T08:00:23.116Z,15.17
2018-09-28T08:01:21.452Z,15.14
2018-09-28T08:02:21.518Z,15.16
2018-09-28T08:03:21.471Z,15.06
2018-09-28T08:04:21.473Z,15.13
2018-09-28T08:05:21.550Z,15.10
2018-09-28T08:06:21.506Z,15.06
2018-09-28T08:07:21.516Z,15.10
2018-09-28T08:08:21.685Z,15.01
2018-09-28T08:09:21.544Z,15.03
2018-09-28T08:10:21.560Z,15.01
2018-09-28T08:11:21.590Z,15.06
2018-09-28T08:12:21.589Z,15.03
2018-09-28T08:13:21.598Z,15.11
2018-09-28T08:14:21.612Z,15.02
2018-09-28T08:15:21.629Z,15.03
2018-09-28T08:16:21.660Z,15.09
2018-09-28T08:17:21.655Z,15.11
2018-09-28T08:18:21.668Z,15.09
2018-09-28T08:19:21.837Z,15.10
2018-09-28T08:20:21.704Z,15.20
2018-09-28T08:21:21.709Z,15.20
2018-09-28T08:22:21.722Z,15.13
2018-09-28T08:23:21.820Z,15.16
2018-09-28T08:24:21.751Z,15.25
2018-09-28T08:25:22.074Z,15.25
2018-09-28T08:26:21.780Z,15.21
2018-09-28T08:27:22.426Z,15.29
2018-09-28T08:28:21.819Z,15.20
2018-09-28T08:29:21.821Z,15.28
2018-09-28T08:30:21.871Z,15.31
2018-09-28T08:31:21.849Z,15.28
2018-09-28T08:32:21.898Z,15.34
2018-09-28T08:33:21.909Z,15.25
2018-09-28T08:34:21.890Z,15.21
2018-09-28T08:35:21.905Z,15.13
2018-09-28T08:36:22.041Z,15.11
2018-09-28T08:37:21.941Z,15.25
2018-09-28T08:38:21.950Z,15.13
2018-09-28T08:39:22.044Z,15.16
2018-09-28T08:40:21.980Z,15.20
2018-09-28T08:41:21.986Z,15.25
2018-09-28T08:42:22.003Z,15.13
2018-09-28T08:43:22.066Z,15.06
2018-09-28T08:44:22.521Z,15.13
2018-09-28T08:45:22.093Z,14.99
2018-09-28T08:46:22.208Z,15.02
2018-09-28T08:47:22.090Z,15.09
2018-09-28T08:48:22.093Z,14.98
2018-09-28T08:49:22.189Z,15.11
2018-09-28T08:50:22.117Z,15.01
2018-09-28T08:51:22.125Z,15.13
2018-09-28T08:52:22.140Z,15.07
2018-09-28T08:53:22.162Z,15.17
2018-09-28T08:54:22.168Z,15.31
2018-09-28T08:55:22.384Z,15.34
2018-09-28T08:56:22.194Z,15.27
2018-09-28T08:57:22.209Z,15.25
2018-09-28T08:58:22.233Z,15.16
2018-09-28T08:59:22.321Z,15.28
2018-09-28T09:00:22.258Z,15.43
2018-09-28T09:01:22.266Z,15.41
2018-09-28T09:02:22.283Z,15.51
2018-09-28T09:03:22.296Z,15.49
2018-09-28T09:04:22.620Z,15.49
2018-09-28T09:05:22.322Z,15.49
2018-09-28T09:06:22.337Z,15.44
2018-09-28T09:07:22.358Z,15.36
2018-09-28T09:08:22.365Z,15.35
2018-09-28T09:09:22.387Z,15.34
2018-09-28T09:10:22.393Z,15.38
2018-09-28T09:11:22.407Z,15.32
2018-09-28T09:12:22.425Z,15.43
2018-09-28T09:13:22.449Z,15.41
2018-09-28T09:14:22.453Z,15.41
2018-09-28T09:15:22.466Z,15.38
2018-09-28T09:16:22.478Z,15.38
2018-09-28T09:17:22.509Z,15.35
2018-09-28T09:18:22.597Z,15.36
2018-09-28T09:19:22.533Z,15.46
2018-09-28T09:20:22.539Z,15.43
2018-09-28T09:21:23.925Z,15.44
2018-09-28T09:22:24.070Z,15.50
2018-09-28T09:23:22.599Z,15.60
2018-09-28T09:24:22.590Z,15.56
2018-09-28T09:25:22.605Z,15.57
2018-09-28T09:26:22.641Z,15.67
2018-09-28T09:27:22.716Z,15.74
2018-09-28T09:28:22.647Z,15.68
2018-09-28T09:29:22.864Z,15.72
2018-09-28T09:30:22.677Z,15.62
2018-09-28T09:31:22.691Z,15.59
2018-09-28T09:32:22.712Z,15.60
2018-09-28T09:33:22.756Z,15.49
2018-09-28T09:34:22.745Z,15.47
2018-09-28T09:35:22.752Z,15.49
2018-09-28T09:36:22.770Z,15.34
2018-09-28T09:37:23.054Z,15.32
2018-09-28T09:38:23.023Z,15.44
2018-09-28T09:39:23.067Z,15.47
2018-09-28T09:40:22.826Z,15.44
2018-09-28T09:41:22.834Z,15.51
2018-09-28T09:42:22.845Z,15.49
2018-09-28T09:43:22.859Z,15.49
2018-09-28T09:44:22.873Z,15.53
2018-09-28T09:45:22.912Z,15.59
2018-09-28T09:46:22.936Z,15.65
2018-09-28T09:47:22.976Z,15.69
2018-09-28T09:48:23.015Z,15.68
2018-09-28T09:49:22.959Z,15.76
2018-09-28T09:50:22.971Z,15.72
2018-09-28T09:51:22.972Z,15.76
2018-09-28T09:52:22.988Z,15.78
2018-09-28T09:53:23.018Z,15.75
2018-09-28T09:54:23.014Z,15.89
2018-09-28T09:55:23.035Z,15.92
2018-09-28T09:56:23.055Z,16.01
2018-09-28T09:57:23.060Z,16.04
2018-09-28T09:58:23.074Z,16.01
2018-09-28T09:59:23.087Z,16.04
2018-09-28T10:00:23.100Z,15.93
2018-09-28T10:01:23.117Z,15.89
2018-09-28T10:02:23.146Z,15.94
2018-09-28T10:03:23.148Z,16.04
2018-09-28T10:04:23.158Z,15.86
2018-09-28T10:05:23.193Z,15.86
2018-09-28T10:06:23.199Z,15.97
2018-09-28T10:07:23.230Z,15.97
2018-09-28T10:08:23.214Z,15.97
2018-09-28T10:09:23.247Z,16.02
2018-09-28T10:10:23.246Z,16.07
2018-09-28T10:11:23.261Z,16.07
2018-09-28T10:12:23.368Z,16.09
2018-09-28T10:13:23.290Z,16.21
2018-09-28T10:14:23.303Z,16.34
2018-09-28T10:15:23.314Z,16.28
2018-09-28T10:16:23.329Z,16.31
2018-09-28T10:17:23.348Z,16.45
2018-09-28T10:18:23.372Z,16.48
2018-09-28T10:19:23.474Z,16.58
2018-09-28T10:20:23.421Z,16.64
2018-09-28T10:21:23.416Z,16.63
2018-09-28T10:22:23.416Z,16.67
2018-09-28T10:23:23.431Z,16.73
2018-09-28T10:24:23.444Z,16.75
2018-09-28T10:25:23.491Z,16.75
2018-09-28T10:26:23.474Z,16.67
2018-09-28T10:27:23.536Z,16.75
2018-09-28T10:28:23.829Z,16.64
2018-09-28T10:29:23.525Z,16.66
2018-09-28T10:30:23.535Z,16.58
2018-09-28T10:31:23.569Z,16.56
2018-09-28T10:32:23.560Z,16.46
2018-09-28T10:33:23.617Z,16.49
2018-09-28T10:34:23.712Z,16.52
2018-09-28T10:35:23.916Z,16.57
2018-09-28T10:36:23.655Z,16.43
2018-09-28T10:37:23.635Z,16.33
2018-09-28T10:38:23.649Z,16.33
2018-09-28T10:39:23.733Z,16.39
2018-09-28T10:40:23.692Z,16.27
2018-09-28T10:41:23.697Z,16.38
2018-09-28T10:42:23.712Z,16.33
2018-09-28T10:43:23.719Z,16.28
2018-09-28T10:44:23.748Z,16.25
2018-09-28T10:45:23.823Z,16.28
2018-09-28T10:46:23.784Z,16.35
2018-09-28T10:47:23.778Z,16.43
2018-09-28T10:48:23.795Z,16.42
2018-09-28T10:49:23.821Z,16.52
2018-09-28T10:50:23.820Z,16.52
2018-09-28T10:51:23.925Z,16.68
2018-09-28T10:52:24.204Z,16.81
2018-09-28T10:53:23.912Z,16.73
2018-09-28T10:54:23.882Z,16.98
2018-09-28T10:55:23.909Z,17.04
2018-09-28T10:56:23.905Z,17.18
2018-09-28T10:57:24.367Z,17.48
2018-09-28T10:58:24.034Z,17.55
2018-09-28T10:59:23.963Z,17.63
2018-09-28T11:00:23.987Z,17.75
2018-09-28T11:01:23.984Z,17.86
2018-09-28T11:02:24.005Z,17.81
2018-09-28T11:03:24.052Z,17.93
2018-09-28T11:04:24.148Z,17.90
2018-09-28T11:05:24.058Z,17.89
2018-09-28T11:06:24.085Z,17.86
2018-09-28T11:07:24.878Z,17.78
2018-09-28T11:08:24.136Z,17.74
2018-09-28T11:09:24.200Z,17.63
2018-09-28T11:10:24.200Z,17.70
2018-09-28T11:11:24.131Z,17.79
2018-09-28T11:12:24.140Z,17.84
2018-09-28T11:13:24.189Z,17.84
2018-09-28T11:14:24.218Z,17.84
2018-09-28T11:15:24.246Z,17.92
2018-09-28T11:16:24.513Z,17.93
2018-09-28T11:17:24.328Z,17.90
2018-09-28T11:18:24.255Z,17.87
2018-09-28T11:19:24.250Z,17.90
2018-09-28T11:20:24.259Z,17.92
2018-09-28T11:21:24.461Z,17.86
2018-09-28T11:22:24.288Z,17.90
2018-09-28T11:23:24.307Z,17.90
2018-09-28T11:24:24.317Z,17.78
2018-09-28T11:25:24.341Z,17.87
2018-09-28T11:26:24.407Z,17.87
2018-09-28T11:27:26.369Z,17.82
2018-09-28T11:28:24.375Z,17.92
2018-09-28T11:29:24.393Z,17.95
2018-09-28T11:30:24.772Z,18.00
2018-09-28T11:31:24.451Z,17.79
2018-09-28T11:32:24.439Z,17.54
2018-09-28T11:33:24.583Z,17.49
2018-09-28T11:34:24.492Z,17.48
2018-09-28T11:35:24.638Z,17.51
2018-09-28T11:36:24.508Z,17.52
2018-09-28T11:37:24.515Z,17.43
2018-09-28T11:38:24.526Z,17.33
2018-09-28T11:39:24.624Z,17.38
2018-09-28T11:40:24.563Z,17.36
2018-09-28T11:41:24.575Z,17.34
2018-09-28T11:42:24.587Z,17.26
2018-09-28T11:43:24.625Z,17.31
2018-09-28T11:44:24.625Z,17.08
2018-09-28T11:45:24.684Z,17.07
2018-09-28T11:46:24.645Z,16.96
2018-09-28T11:47:24.693Z,16.96
2018-09-28T11:48:24.678Z,16.96
2018-09-28T11:49:24.689Z,16.91
2018-09-28T11:50:24.722Z,16.79
2018-09-28T11:51:24.849Z,16.78
2018-09-28T11:52:24.742Z,16.96
2018-09-28T11:53:24.745Z,16.96
2018-09-28T11:54:24.757Z,16.96
2018-09-28T11:55:24.798Z,17.08
2018-09-28T11:56:24.787Z,17.19
2018-09-28T11:57:24.875Z,17.30
2018-09-28T11:58:24.818Z,17.34
2018-09-28T11:59:24.831Z,17.36
2018-09-28T12:00:24.846Z,17.49
2018-09-28T12:01:24.863Z,17.36
2018-09-28T12:02:25.030Z,17.54
2018-09-28T12:03:25.001Z,17.56
2018-09-28T12:04:24.903Z,17.70
2018-09-28T12:05:24.917Z,17.78
2018-09-28T12:06:25.019Z,17.79
2018-09-28T12:07:24.955Z,17.92
2018-09-28T12:08:24.980Z,17.89
2018-09-28T12:09:25.028Z,17.77
2018-09-28T12:10:24.992Z,17.66
2018-09-28T12:11:25.006Z,17.75
2018-09-28T12:12:25.075Z,17.63
2018-09-28T12:13:25.042Z,17.72
2018-09-28T12:14:25.047Z,17.64
2018-09-28T12:15:25.144Z,17.70
2018-09-28T12:16:25.294Z,17.75
2018-09-28T12:17:25.875Z,17.95
2018-09-28T12:18:25.211Z,17.90
2018-09-28T12:19:25.119Z,17.96
2018-09-28T12:20:25.135Z,17.90
2018-09-28T12:21:25.291Z,17.82
2018-09-28T12:22:25.170Z,17.74
2018-09-28T12:23:25.183Z,17.84
2018-09-28T12:24:25.467Z,17.74
2018-09-28T12:25:25.232Z,17.79
2018-09-28T12:26:25.227Z,17.68
2018-09-28T12:27:25.294Z,17.66
2018-09-28T12:28:25.254Z,17.71
2018-09-28T12:29:25.268Z,17.68
2018-09-28T12:30:25.377Z,17.66
2018-09-28T12:31:25.293Z,17.55
2018-09-28T12:32:25.332Z,17.51
2018-09-28T12:33:25.483Z,17.52
2018-09-28T12:34:25.341Z,17.63
2018-09-28T12:35:25.387Z,17.58
2018-09-28T12:36:26.315Z,17.62
2018-09-28T12:37:25.383Z,17.41
2018-09-28T12:38:25.398Z,17.44
2018-09-28T12:39:25.431Z,17.46
2018-09-28T12:40:25.429Z,17.44
2018-09-28T12:41:25.453Z,17.44
2018-09-28T12:42:25.536Z,17.51
2018-09-28T12:43:25.477Z,17.46
2018-09-28T12:44:25.592Z,17.52
2018-09-28T12:45:25.680Z,17.62
2018-09-28T12:46:25.525Z,17.70
2018-09-28T12:47:25.539Z,17.75
2018-09-28T12:48:25.649Z,17.82
2018-09-28T12:49:25.566Z,18.11
2018-09-28T12:50:25.628Z,18.26
2018-09-28T12:51:25.589Z,18.44
2018-09-28T12:52:25.602Z,18.52
2018-09-28T12:53:25.635Z,18.51
2018-09-28T12:54:25.701Z,18.69
2018-09-28T12:55:25.645Z,18.67